Time;durP1;ratioP1;P1;durP2;ratioP2;P2;SDS_P1;SDS_P2;PMS_P1;PMS_P2;Temp;Humidity;BMP_temperature;BMP_pressure;BME280_temperature;BME280_humidity;BME280_pressure;Samples;Min_cycle;Max_cycle;Signal;HPM_P1;HPM_P2
2021/03/31 00:01:15;;;;;;;3.45;1.50;;;20.70;38.00;;;;;;5074301;28;20016;-67
2021/03/31 00:03:40;;;;;;;3.92;1.50;;;20.70;38.00;;;;;;5074382;28;20475;-67
2021/03/31 00:06:06;;;;;;;4.53;2.05;;;20.70;38.00;;;;;;5072968;28;20542;-67
2021/03/31 00:08:31;;;;;;;4.20;1.92;;;20.70;38.00;;;;;;5073816;28;20031;-66
2021/03/31 00:10:59;;;;;;;4.40;1.85;;;20.70;38.00;;;;;;5073788;28;20048;-66
2021/03/31 00:13:25;;;;;;;5.18;2.10;;;20.70;38.00;;;;;;5072458;28;20024;-66
2021/03/31 00:15:52;;;;;;;5.22;2.20;;;20.70;38.00;;;;;;5072582;28;20361;-67
2021/03/31 00:18:20;;;;;;;3.95;1.75;;;20.70;38.00;;;;;;5074221;28;20063;-66
2021/03/31 00:20:46;;;;;;;5.28;1.75;;;20.70;38.00;;;;;;5073768;28;20049;-67
2021/03/31 00:23:13;;;;;;;5.72;1.95;;;20.70;38.00;;;;;;5074134;28;20024;-67
2021/03/31 00:25:41;;;;;;;4.55;2.00;;;20.70;38.00;;;;;;5073824;28;20081;-68
2021/03/31 00:28:09;;;;;;;4.30;1.92;;;20.70;38.00;;;;;;5073958;28;20056;-66
2021/03/31 00:30:35;;;;;;;4.47;2.13;;;20.70;37.90;;;;;;5074127;28;20036;-66
2021/03/31 00:33:01;;;;;;;5.15;2.00;;;20.70;38.00;;;;;;5074198;28;20020;-67
2021/03/31 00:35:26;;;;;;;4.97;2.10;;;20.70;38.00;;;;;;5074747;28;20421;-66
2021/03/31 00:37:52;;;;;;;4.78;1.88;;;20.60;38.00;;;;;;5081066;28;20476;-66
2021/03/31 00:40:19;;;;;;;5.28;1.90;;;20.70;38.00;;;;;;5073642;28;20020;-66
2021/03/31 00:42:46;;;;;;;4.93;2.42;;;20.60;38.00;;;;;;5073652;28;20055;-66
2021/03/31 00:45:13;;;;;;;4.82;2.17;;;20.60;37.90;;;;;;5073441;28;20066;-66
2021/03/31 00:47:39;;;;;;;6.82;2.30;;;20.60;37.90;;;;;;5073451;28;20031;-66
2021/03/31 00:50:08;;;;;;;4.40;2.10;;;20.60;38.00;;;;;;5073459;28;20060;-66
2021/03/31 00:52:34;;;;;;;4.78;2.08;;;20.60;38.00;;;;;;5073444;28;20096;-68
2021/03/31 00:55:00;;;;;;;5.22;2.17;;;20.60;38.00;;;;;;5072898;28;20037;-66
2021/03/31 00:57:26;;;;;;;5.00;2.10;;;20.60;38.00;;;;;;5073493;28;20033;-66
2021/03/31 00:59:52;;;;;;;8.48;2.47;;;20.60;38.00;;;;;;5073465;28;20071;-66
2021/03/31 01:02:17;;;;;;;5.53;2.38;;;20.60;38.00;;;;;;5073376;28;20024;-67
2021/03/31 01:04:43;;;;;;;4.40;2.15;;;20.60;38.00;;;;;;5073400;28;20060;-66
2021/03/31 01:07:08;;;;;;;4.80;2.10;;;20.60;37.90;;;;;;5071983;28;20025;-66
2021/03/31 01:09:35;;;;;;;5.78;2.08;;;20.60;38.00;;;;;;5073648;28;20078;-66
2021/03/31 01:12:19;;;;;;;5.00;2.28;;;20.60;37.90;;;;;;5073259;28;20372;-66
2021/03/31 01:14:57;;;;;;;4.97;2.35;;;20.60;38.00;;;;;;5072051;28;20050;-67
2021/03/31 01:17:46;;;;;;;4.90;2.20;;;20.60;37.90;;;;;;5073186;28;20067;-67
2021/03/31 01:20:30;;;;;;;5.40;2.35;;;20.60;37.90;;;;;;5042453;28;20094;-67
2021/03/31 01:23:17;;;;;;;6.03;2.45;;;20.60;38.00;;;;;;5073144;28;20033;-66
2021/03/31 01:25:49;;;;;;;8.38;2.50;;;20.50;37.90;;;;;;5073224;28;20085;-66
2021/03/31 01:28:23;;;;;;;5.63;2.33;;;20.50;38.00;;;;;;5071752;28;20099;-65
2021/03/31 01:30:57;;;;;;;;;;;20.60;37.90;;;;;;5073555;28;20114;-66
2021/03/31 01:33:46;;;;;;;5.78;2.28;;;20.60;37.90;;;;;;5071654;28;19927;-67
2021/03/31 01:36:17;;;;;;;4.63;2.35;;;20.50;38.00;;;;;;5076205;28;20029;-65
2021/03/31 01:38:51;;;;;;;4.75;2.30;;;20.50;38.00;;;;;;5073571;28;20028;-68
2021/03/31 01:41:18;;;;;;;4.55;2.20;;;20.50;37.90;;;;;;5073318;28;20021;-66
2021/03/31 01:43:45;;;;;;;5.35;2.55;;;20.50;37.90;;;;;;5072884;28;20043;-66
2021/03/31 01:46:10;;;;;;;4.65;2.30;;;20.50;37.90;;;;;;5072889;28;20032;-67
2021/03/31 01:48:36;;;;;;;5.03;2.70;;;20.50;37.90;;;;;;5072897;28;20104;-66
2021/03/31 01:51:06;;;;;;;5.90;2.53;;;20.50;37.90;;;;;;5073195;28;20060;-66
2021/03/31 01:53:32;;;;;;;6.30;3.00;;;20.50;37.90;;;;;;5072918;28;20028;-67
2021/03/31 01:55:59;;;;;;;5.35;2.25;;;20.50;37.90;;;;;;5072829;28;20028;-67
2021/03/31 01:58:26;;;;;;;6.70;2.83;;;20.50;37.90;;;;;;5072561;28;20028;-66
2021/03/31 02:00:52;;;;;;;5.38;2.40;;;20.50;37.90;;;;;;5072718;28;20484;-67
2021/03/31 02:03:20;;;;;;;4.95;2.40;;;20.50;37.90;;;;;;5072650;28;20159;-66
2021/03/31 02:05:47;;;;;;;6.75;2.90;;;20.50;37.90;;;;;;5073339;28;20059;-67
2021/03/31 02:08:13;;;;;;;6.18;2.85;;;20.50;37.90;;;;;;5076557;28;20081;-67
2021/03/31 02:10:40;;;;;;;5.43;2.75;;;20.50;37.90;;;;;;5076373;28;20028;-66
2021/03/31 02:13:06;;;;;;;5.38;2.45;;;20.50;37.90;;;;;;5076294;28;20021;-67
2021/03/31 02:15:33;;;;;;;6.35;2.70;;;20.50;37.90;;;;;;5076804;28;20163;-66
2021/03/31 02:18:01;;;;;;;6.30;3.00;;;20.50;37.90;;;;;;5077790;28;20021;-66
2021/03/31 02:20:27;;;;;;;4.45;2.50;;;20.50;37.90;;;;;;5076261;28;20052;-66
2021/03/31 02:22:53;;;;;;;5.90;2.90;;;20.50;37.90;;;;;;5076735;28;20059;-67
2021/03/31 02:25:20;;;;;;;7.18;2.85;;;20.50;37.90;;;;;;5076612;28;20032;-67
2021/03/31 02:27:46;;;;;;;5.45;2.50;;;20.50;37.90;;;;;;5080827;28;20024;-67
2021/03/31 02:30:15;;;;;;;5.75;2.50;;;20.50;37.90;;;;;;5084040;28;20033;-67
2021/03/31 02:32:45;;;;;;;6.75;2.50;;;20.50;37.80;;;;;;5077380;28;20059;-66
2021/03/31 02:35:13;;;;;;;5.47;2.72;;;20.50;37.90;;;;;;5075773;28;20517;-67
2021/03/31 02:37:41;;;;;;;5.50;2.80;;;20.50;37.90;;;;;;5075660;28;20380;-66
2021/03/31 02:40:10;;;;;;;5.85;2.80;;;20.50;37.90;;;;;;5075780;28;20517;-66
2021/03/31 02:42:39;;;;;;;6.28;3.03;;;20.50;37.80;;;;;;5075695;28;20024;-67
2021/03/31 02:45:05;;;;;;;5.43;2.80;;;20.50;37.90;;;;;;5076134;28;20036;-66
2021/03/31 02:47:35;;;;;;;5.53;2.67;;;20.50;37.90;;;;;;5076374;28;20507;-66
2021/03/31 02:50:03;;;;;;;4.90;2.65;;;20.50;37.80;;;;;;5076618;28;20037;-66
2021/03/31 02:52:30;;;;;;;6.18;2.78;;;20.50;37.80;;;;;;5075835;28;20031;-66
2021/03/31 02:54:56;;;;;;;5.90;2.60;;;20.50;37.90;;;;;;5075912;28;20024;-67
2021/03/31 02:57:23;;;;;;;5.75;2.80;;;20.50;37.80;;;;;;5075647;28;20028;-66
2021/03/31 02:59:50;;;;;;;9.38;3.50;;;20.50;37.80;;;;;;5080563;28;20031;-66
2021/03/31 03:02:18;;;;;;;7.00;2.95;;;20.40;37.90;;;;;;5082585;28;20365;-67
2021/03/31 03:04:48;;;;;;;7.40;3.20;;;20.50;37.90;;;;;;5080993;28;20036;-68
2021/03/31 03:07:13;;;;;;;7.47;2.83;;;20.50;37.80;;;;;;5077901;28;20067;-66
2021/03/31 03:09:41;;;;;;;5.93;2.92;;;20.50;37.80;;;;;;5077975;28;20020;-67
2021/03/31 03:12:09;;;;;;;5.25;2.40;;;20.40;37.80;;;;;;5081269;28;20031;-66
2021/03/31 03:14:35;;;;;;;6.60;2.88;;;20.50;37.80;;;;;;5077375;28;20016;-66
2021/03/31 03:17:01;;;;;;;5.38;2.70;;;20.50;37.80;;;;;;5075443;28;20103;-67
2021/03/31 03:19:27;;;;;;;5.50;2.80;;;20.50;37.80;;;;;;5075109;28;20032;-66
2021/03/31 03:21:53;;;;;;;6.22;2.80;;;20.50;37.80;;;;;;5075040;28;20052;-67
2021/03/31 03:24:19;;;;;;;7.32;2.75;;;20.40;37.80;;;;;;5074964;28;20032;-66
2021/03/31 03:26:45;;;;;;;6.45;3.08;;;20.50;37.80;;;;;;5074783;28;20025;-66
2021/03/31 03:29:11;;;;;;;6.40;2.95;;;20.40;37.80;;;;;;5075187;28;20032;-66
2021/03/31 03:31:38;;;;;;;6.50;3.40;;;20.40;37.80;;;;;;5074909;28;20035;-67
2021/03/31 03:34:07;;;;;;;5.65;3.08;;;20.40;37.80;;;;;;5074613;28;20525;-66
2021/03/31 03:36:34;;;;;;;6.03;2.78;;;20.50;37.80;;;;;;5074841;28;20032;-66
2021/03/31 03:39:02;;;;;;;6.95;2.72;;;20.40;37.70;;;;;;5074641;28;20120;-66
2021/03/31 03:41:28;;;;;;;6.93;3.00;;;20.40;37.80;;;;;;5074438;28;20051;-67
2021/03/31 03:43:56;;;;;;;6.18;3.05;;;20.40;37.80;;;;;;5074832;28;20021;-66
2021/03/31 03:46:22;;;;;;;5.78;3.15;;;20.40;37.80;;;;;;5074642;28;20040;-66
2021/03/31 03:48:48;;;;;;;5.55;2.53;;;20.40;37.80;;;;;;5074261;28;20017;-67
2021/03/31 03:51:14;;;;;;;6.10;2.47;;;20.40;37.80;;;;;;5074399;28;20025;-67
2021/03/31 03:53:40;;;;;;;6.75;3.13;;;20.40;37.80;;;;;;5074183;28;20027;-66
2021/03/31 03:56:11;;;;;;;7.72;3.15;;;20.40;37.80;;;;;;5074551;28;20028;-67
2021/03/31 03:58:37;;;;;;;6.40;3.17;;;20.40;37.70;;;;;;5074443;28;20055;-66
2021/03/31 04:01:03;;;;;;;5.93;2.50;;;20.40;37.80;;;;;;5074217;28;20020;-66
2021/03/31 04:03:28;;;;;;;6.22;2.60;;;20.40;37.80;;;;;;5074226;28;20138;-66
2021/03/31 04:05:54;;;;;;;6.15;2.95;;;20.40;37.80;;;;;;5074026;28;20106;-66
2021/03/31 04:08:20;;;;;;;6.38;3.17;;;20.40;37.80;;;;;;5073651;28;20021;-66
2021/03/31 04:10:51;;;;;;;6.00;2.63;;;20.40;37.70;;;;;;5074494;28;20074;-66
2021/03/31 04:13:17;;;;;;;5.38;2.60;;;20.40;37.70;;;;;;5074100;28;20072;-66
2021/03/31 04:15:45;;;;;;;5.75;2.65;;;20.40;37.70;;;;;;5073774;28;20082;-67
2021/03/31 04:18:12;;;;;;;6.80;2.72;;;20.50;37.70;;;;;;5073965;28;20104;-67
2021/03/31 04:20:39;;;;;;;6.30;2.63;;;20.40;37.70;;;;;;5073731;28;20044;-67
2021/03/31 04:23:06;;;;;;;6.65;3.13;;;20.50;37.70;;;;;;5073893;28;20396;-67
2021/03/31 04:25:32;;;;;;;6.25;2.63;;;20.50;37.70;;;;;;5073645;28;20485;-67
2021/03/31 04:28:02;;;;;;;6.47;2.90;;;20.50;37.70;;;;;;5073765;28;20031;-67
2021/03/31 04:30:29;;;;;;;6.35;2.83;;;20.50;37.70;;;;;;5073238;28;20048;-67
2021/03/31 04:32:56;;;;;;;5.10;2.60;;;20.50;37.60;;;;;;5073501;28;20024;-67
2021/03/31 04:35:22;;;;;;;4.20;2.22;;;20.50;37.60;;;;;;5073801;28;20048;-67
2021/03/31 04:37:48;;;;;;;7.40;2.80;;;20.50;37.70;;;;;;5073516;28;20476;-67
2021/03/31 04:40:16;;;;;;;5.57;2.67;;;20.50;37.60;;;;;;5073890;28;20086;-67
2021/03/31 04:42:42;;;;;;;5.43;2.72;;;20.50;37.60;;;;;;5073511;28;20123;-67
2021/03/31 04:45:11;;;;;;;5.75;2.90;;;20.50;37.60;;;;;;5073541;28;20579;-67
2021/03/31 04:47:37;;;;;;;5.40;2.92;;;20.50;37.60;;;;;;5073781;28;20405;-67
2021/03/31 04:50:05;;;;;;;5.72;2.78;;;20.50;37.60;;;;;;5073516;28;20120;-67
2021/03/31 04:52:30;;;;;;;4.75;2.22;;;20.50;37.50;;;;;;5073255;28;20201;-66
2021/03/31 04:54:56;;;;;;;4.97;2.20;;;20.50;37.60;;;;;;5073524;28;20044;-66
2021/03/31 04:57:22;;;;;;;5.10;2.60;;;20.50;37.60;;;;;;5073376;28;20044;-66
2021/03/31 04:59:47;;;;;;;6.35;2.65;;;20.50;37.60;;;;;;5073574;28;20081;-67
2021/03/31 05:02:13;;;;;;;5.88;2.80;;;20.60;37.50;;;;;;5073421;28;20078;-67
2021/03/31 05:04:39;;;;;;;5.28;2.40;;;20.50;37.50;;;;;;5073930;28;20043;-67
2021/03/31 05:07:05;;;;;;;8.13;2.70;;;20.50;37.60;;;;;;5073843;28;20423;-67
2021/03/31 05:09:30;;;;;;;6.65;2.38;;;20.60;37.60;;;;;;5073325;28;20028;-67
2021/03/31 05:11:57;;;;;;;5.03;2.47;;;20.50;37.60;;;;;;5073269;28;20028;-67
2021/03/31 05:14:22;;;;;;;7.28;2.72;;;20.60;37.60;;;;;;5073146;28;20034;-67
2021/03/31 05:16:48;;;;;;;5.57;2.80;;;20.50;37.60;;;;;;5073214;28;20095;-67
2021/03/31 05:19:14;;;;;;;6.40;2.83;;;20.60;37.50;;;;;;5073312;28;20017;-67
2021/03/31 05:21:39;;;;;;;5.72;2.97;;;20.50;37.50;;;;;;5073064;28;20060;-67
2021/03/31 05:24:05;;;;;;;6.00;3.05;;;20.50;37.50;;;;;;5073309;28;20099;-67
2021/03/31 05:26:31;;;;;;;6.32;2.65;;;20.50;37.50;;;;;;5073331;28;20032;-67
2021/03/31 05:28:57;;;;;;;5.50;2.55;;;20.50;37.50;;;;;;5073108;28;20048;-67
2021/03/31 05:31:23;;;;;;;5.15;2.45;;;20.60;37.50;;;;;;5072967;28;20495;-67
2021/03/31 05:33:49;;;;;;;6.35;2.42;;;20.60;37.60;;;;;;5072986;28;20016;-67
2021/03/31 05:36:15;;;;;;;6.07;2.72;;;20.60;37.60;;;;;;5073385;28;20025;-67
2021/03/31 05:38:40;;;;;;;5.97;2.70;;;20.60;37.40;;;;;;5073135;28;20032;-67
2021/03/31 05:41:06;;;;;;;5.10;2.55;;;20.60;37.50;;;;;;5074364;28;20028;-67
2021/03/31 05:43:32;;;;;;;5.55;2.60;;;20.60;37.60;;;;;;5076973;28;20036;-67
2021/03/31 05:45:58;;;;;;;5.28;2.22;;;20.50;37.50;;;;;;5077214;28;20036;-67
2021/03/31 05:48:24;;;;;;;5.55;2.72;;;20.60;37.60;;;;;;5077000;28;20452;-67
2021/03/31 05:50:50;;;;;;;7.68;2.65;;;20.60;37.50;;;;;;5075682;28;20024;-67
2021/03/31 05:53:15;;;;;;;5.75;2.65;;;20.60;37.50;;;;;;5077332;28;20026;-67
2021/03/31 05:55:41;;;;;;;4.82;2.17;;;20.60;37.50;;;;;;5076841;28;20444;-66
2021/03/31 05:58:07;;;;;;;5.30;2.10;;;20.60;37.50;;;;;;5076895;28;20082;-67
2021/03/31 06:00:34;;;;;;;6.00;2.60;;;20.60;37.50;;;;;;5077098;28;20472;-67
2021/03/31 06:03:04;;;;;;;5.40;2.45;;;20.60;37.50;;;;;;5081241;28;20024;-67
2021/03/31 06:05:33;;;;;;;5.75;2.30;;;20.60;37.50;;;;;;5081611;28;20040;-67
2021/03/31 06:07:59;;;;;;;6.20;2.58;;;20.60;37.50;;;;;;5076549;28;20020;-67
2021/03/31 06:10:26;;;;;;;6.03;2.30;;;20.60;37.40;;;;;;5076329;28;20074;-67
2021/03/31 06:12:54;;;;;;;5.50;2.70;;;20.60;37.40;;;;;;5076727;28;20031;-67
2021/03/31 06:15:31;;;;;;;5.57;2.58;;;20.60;37.50;;;;;;5076188;28;20081;-66
2021/03/31 06:17:57;;;;;;;5.95;2.63;;;20.60;37.50;;;;;;5076886;28;20025;-67
2021/03/31 06:20:39;;;;;;;6.15;2.55;;;20.60;37.40;;;;;;5074920;28;20089;-67
2021/03/31 06:23:13;;;;;;;4.45;2.17;;;20.60;37.50;;;;;;5075709;28;20108;-67
2021/03/31 06:25:47;;;;;;;5.50;2.63;;;20.60;37.50;;;;;;5069491;28;20400;-68
2021/03/31 06:28:12;;;;;;;7.53;3.40;;;20.60;37.40;;;;;;5072687;28;20036;-66
2021/03/31 06:30:38;;;;;;;7.10;2.50;;;20.70;37.40;;;;;;5060398;28;20033;-67
2021/03/31 06:33:04;;;;;;;6.40;3.15;;;20.70;37.40;;;;;;5065130;28;20031;-66
2021/03/31 06:35:30;;;;;;;7.63;2.97;;;20.70;37.40;;;;;;5062489;28;20028;-66
2021/03/31 06:38:11;;;;;;;6.07;2.28;;;20.70;37.40;;;;;;5071217;28;20048;-66
2021/03/31 06:40:46;;;;;;;7.85;2.65;;;20.70;37.40;;;;;;5060752;28;20047;-67
2021/03/31 06:43:23;;;;;;;4.70;2.53;;;20.70;37.50;;;;;;5060161;28;20500;-66
2021/03/31 06:45:57;;;;;;;6.07;2.22;;;20.70;37.40;;;;;;5065901;28;20115;-65
2021/03/31 06:48:25;;;;;;;5.32;2.55;;;20.70;37.50;;;;;;5061213;28;20037;-66
2021/03/31 06:50:51;;;;;;;5.32;2.40;;;20.70;37.50;;;;;;5067701;28;20039;-67
2021/03/31 06:53:29;;;;;;;5.47;2.72;;;20.70;37.50;;;;;;5071283;28;20408;-66
2021/03/31 06:56:03;;;;;;;6.50;2.50;;;20.80;37.50;;;;;;5061490;28;20108;-68
2021/03/31 06:58:35;;;;;;;5.97;2.40;;;20.70;37.50;;;;;;5077383;28;20472;-65
2021/03/31 07:01:01;;;;;;;6.50;2.58;;;20.80;37.60;;;;;;5067457;28;20040;-66
2021/03/31 07:03:27;;;;;;;6.07;2.60;;;20.70;37.60;;;;;;5060832;28;20021;-66
2021/03/31 07:05:52;;;;;;;6.65;2.97;;;20.80;37.40;;;;;;5073011;28;20492;-67
2021/03/31 07:08:18;;;;;;;7.35;3.13;;;20.80;37.50;;;;;;5066922;28;20036;-66
2021/03/31 07:10:50;;;;;;;6.78;2.55;;;20.80;37.50;;;;;;5072552;28;20025;-65
2021/03/31 07:13:35;;;;;;;8.27;2.83;;;20.90;37.50;;;;;;5079194;28;20464;-68
2021/03/31 07:16:05;;;;;;;6.20;2.30;;;20.90;37.50;;;;;;5075916;28;20477;-67
2021/03/31 07:18:33;;;;;;;5.53;2.70;;;20.90;37.50;;;;;;5063199;28;20464;-67
2021/03/31 07:20:59;;;;;;;6.80;2.50;;;20.90;37.50;;;;;;5080979;28;20131;-67
2021/03/31 07:23:27;;;;;;;5.85;2.40;;;20.90;37.50;;;;;;5074369;28;20028;-67
2021/03/31 07:25:54;;;;;;;5.30;2.25;;;20.90;37.50;;;;;;5067304;28;20124;-66
2021/03/31 07:28:38;;;;;;;8.93;2.75;;;21.00;37.50;;;;;;5053949;28;20472;-68
2021/03/31 07:31:04;;;;;;;;;;;21.00;37.50;;;;;;5058215;28;20085;-66
2021/03/31 07:33:42;;;;;;;6.75;2.35;;;21.00;37.50;;;;;;5068253;28;19923;-66
2021/03/31 07:36:12;;;;;;;6.25;2.28;;;21.00;37.50;;;;;;5064281;28;20020;-66
2021/03/31 07:38:39;;;;;;;6.65;2.95;;;21.00;37.50;;;;;;5068258;28;20032;-66
2021/03/31 07:41:05;;;;;;;8.88;2.83;;;21.00;37.50;;;;;;5075215;28;20029;-67
2021/03/31 07:43:41;;;;;;;5.82;2.20;;;21.00;37.50;;;;;;5071997;28;20506;-69
2021/03/31 07:46:15;;;;;;;6.35;2.58;;;21.00;37.50;;;;;;5071278;28;20120;-67
2021/03/31 07:48:42;;;;;;;5.43;2.22;;;21.10;37.40;;;;;;5060621;28;20021;-67
2021/03/31 07:51:34;;;;;;;6.55;2.50;;;21.10;37.50;;;;;;5071028;28;20044;-67
2021/03/31 07:54:02;;;;;;;5.95;2.40;;;21.10;37.40;;;;;;5055388;28;20086;-68
2021/03/31 07:56:31;;;;;;;4.97;2.35;;;21.10;37.40;;;;;;5071418;28;20025;-66
2021/03/31 07:59:03;;;;;;;4.25;2.33;;;21.20;37.40;;;;;;5062006;28;20079;-67
2021/03/31 08:01:38;;;;;;;5.13;2.13;;;21.20;37.40;;;;;;5061339;28;20029;-67
2021/03/31 08:04:06;;;;;;;6.30;2.15;;;21.20;37.40;;;;;;5071971;28;20444;-67
2021/03/31 08:06:33;;;;;;;12.82;5.60;;;21.20;37.40;;;;;;5071255;28;20020;-66
2021/03/31 08:09:03;;;;;;;11.38;4.47;;;21.00;35.00;;;;;;5072663;28;20036;-67
2021/03/31 08:11:41;;;;;;;15.32;5.28;;;20.90;34.30;;;;;;5068675;28;20020;-65
2021/03/31 08:14:11;;;;;;;11.73;6.00;;;20.70;33.60;;;;;;5068344;28;20170;-66
2021/03/31 08:16:40;;;;;;;14.77;6.40;;;20.60;33.20;;;;;;5059708;28;20032;-65
2021/03/31 08:19:09;;;;;;;13.07;5.78;;;20.60;33.00;;;;;;5069173;28;20082;-65
2021/03/31 08:21:35;;;;;;;16.70;5.68;;;20.50;32.80;;;;;;5064295;28;20040;-64
2021/03/31 08:24:03;;;;;;;17.73;7.03;;;20.70;32.60;;;;;;5072952;28;20032;-66
2021/03/31 08:26:37;;;;;;;13.45;6.88;;;20.60;32.20;;;;;;5070660;28;20491;-65
2021/03/31 08:29:05;;;;;;;14.85;5.70;;;20.60;32.80;;;;;;5065982;28;20123;-65
2021/03/31 08:31:41;;;;;;;13.70;5.80;;;20.60;32.20;;;;;;5071490;28;20134;-65
2021/03/31 08:34:09;;;;;;;12.90;6.30;;;20.60;32.30;;;;;;5055963;28;20012;-65
2021/03/31 08:36:36;;;;;;;20.48;5.68;;;20.60;32.10;;;;;;5065135;28;20036;-65
2021/03/31 08:39:05;;;;;;;21.60;8.27;;;20.70;32.10;;;;;;5066600;28;20111;-65
2021/03/31 08:41:31;;;;;;;14.68;5.47;;;20.60;31.80;;;;;;5062931;28;20044;-64
2021/03/31 08:44:42;;;;;;;12.95;4.95;;;20.70;31.90;;;;;;5061965;28;20021;-68
2021/03/31 08:47:16;;;;;;;9.65;4.03;;;20.80;32.70;;;;;;5071846;28;20067;-69
2021/03/31 08:49:43;;;;;;;15.43;4.40;;;20.90;33.60;;;;;;5072195;28;20021;-67
2021/03/31 08:52:11;;;;;;;10.65;3.78;;;20.90;33.50;;;;;;5072444;28;20036;-69
2021/03/31 08:54:44;;;;;;;10.40;3.28;;;21.00;33.40;;;;;;5072349;28;20021;-69
2021/03/31 08:57:25;;;;;;;11.63;3.75;;;21.00;33.40;;;;;;5072450;28;20020;-69
2021/03/31 08:59:58;;;;;;;10.23;3.67;;;21.10;33.50;;;;;;5072557;28;20053;-69
2021/03/31 09:02:28;;;;;;;8.00;3.22;;;21.10;33.60;;;;;;5092720;28;20054;-69
2021/03/31 09:04:55;;;;;;;7.43;3.00;;;21.10;33.70;;;;;;5090761;28;20063;-68
2021/03/31 09:07:21;;;;;;;7.32;2.60;;;21.10;33.80;;;;;;5074231;28;20029;-69
2021/03/31 09:09:47;;;;;;;7.20;2.80;;;21.20;33.90;;;;;;5072321;28;20480;-69
2021/03/31 09:12:18;;;;;;;13.10;3.40;;;21.10;33.90;;;;;;5071997;28;20111;-69
2021/03/31 09:14:46;;;;;;;7.40;2.70;;;21.20;34.00;;;;;;5072918;28;20036;-69
2021/03/31 09:17:17;;;;;;;7.35;2.72;;;21.20;34.10;;;;;;5076518;28;20419;-68
2021/03/31 09:19:43;;;;;;;8.13;2.78;;;21.20;34.10;;;;;;5077185;28;20106;-68
2021/03/31 09:22:25;;;;;;;5.25;2.22;;;21.20;34.20;;;;;;5077099;28;20037;-68
2021/03/31 09:24:54;;;;;;;5.20;2.20;;;21.30;34.30;;;;;;5077118;28;20036;-68
2021/03/31 09:27:23;;;;;;;5.40;2.25;;;21.30;34.30;;;;;;5077084;28;20468;-68
2021/03/31 09:29:52;;;;;;;8.18;2.53;;;21.20;34.40;;;;;;5075743;28;20028;-69
2021/03/31 09:32:25;;;;;;;8.45;2.47;;;21.30;34.40;;;;;;5076891;28;20154;-67
2021/03/31 09:34:50;;;;;;;8.75;2.22;;;21.30;34.50;;;;;;5076265;28;20377;-68
2021/03/31 09:37:20;;;;;;;5.30;2.58;;;21.30;34.50;;;;;;5076231;28;20028;-68
2021/03/31 09:39:56;;;;;;;7.63;2.28;;;21.40;34.60;;;;;;5061949;28;20087;-68
2021/03/31 09:42:34;;;;;;;7.35;2.40;;;21.30;34.60;;;;;;5061175;28;20535;-68
2021/03/31 09:45:01;;;;;;;7.13;2.25;;;21.40;34.60;;;;;;5076210;28;20111;-68
2021/03/31 09:47:29;;;;;;;10.13;2.05;;;21.30;34.70;;;;;;5076123;28;20092;-68
2021/03/31 09:49:56;;;;;;;6.72;2.58;;;21.40;34.70;;;;;;5075798;28;20035;-68
2021/03/31 09:52:25;;;;;;;7.03;2.45;;;21.40;34.60;;;;;;5076428;28;20025;-65
2021/03/31 09:54:51;;;;;;;5.72;2.30;;;21.50;34.60;;;;;;5076246;28;20380;-65
2021/03/31 09:57:17;;;;;;;6.93;2.20;;;21.50;34.60;;;;;;5076513;28;20040;-65
2021/03/31 09:59:43;;;;;;;3.92;1.80;;;21.50;34.70;;;;;;5076444;28;20387;-65
2021/03/31 10:02:10;;;;;;;5.88;2.28;;;21.50;34.70;;;;;;5076159;28;20043;-65
2021/03/31 10:04:38;;;;;;;5.20;2.10;;;21.50;34.80;;;;;;5075899;28;20047;-65
2021/03/31 10:07:18;;;;;;;6.63;2.22;;;21.50;34.80;;;;;;5076512;28;20518;-65
2021/03/31 10:09:48;;;;;;;6.70;2.10;;;21.50;34.80;;;;;;5076469;28;20036;-65
2021/03/31 10:12:34;;;;;;;8.10;2.00;;;21.50;34.90;;;;;;5076582;28;20722;-65
2021/03/31 10:15:02;;;;;;;7.60;2.20;;;21.50;34.90;;;;;;5080377;28;20031;-65
2021/03/31 10:17:30;;;;;;;5.82;2.38;;;21.50;34.90;;;;;;5079121;28;20035;-66
2021/03/31 10:20:17;;;;;;;4.07;1.70;;;21.50;34.90;;;;;;5076016;28;20458;-65
2021/03/31 10:22:43;;;;;;;10.00;2.40;;;21.60;34.90;;;;;;5076445;28;20112;-64
2021/03/31 10:25:26;;;;;;;5.10;1.85;;;21.60;34.90;;;;;;5075555;28;20450;-65
2021/03/31 10:27:52;;;;;;;7.50;1.85;;;21.60;34.90;;;;;;5075006;28;20031;-65
2021/03/31 10:30:30;;;;;;;8.93;1.88;;;21.60;34.90;;;;;;5075481;28;20032;-65
2021/03/31 10:32:57;;;;;;;5.72;1.75;;;21.70;34.90;;;;;;5068825;28;20028;-65
2021/03/31 10:35:55;;;;;;;5.15;2.10;;;21.70;34.90;;;;;;5075119;28;20090;-64
2021/03/31 10:39:05;;;;;;;4.82;1.75;;;21.70;34.90;;;;;;5074805;28;20411;-64
2021/03/31 10:46:50;;;;;;;7.05;2.28;;;21.90;34.70;;;;;;5061329;28;20202;-66
2021/03/31 10:52:28;;;;;;;5.40;2.25;;;22.00;34.60;;;;;;5026668;28;20096;-64
2021/03/31 10:54:56;;;;;;;5.55;2.13;;;22.10;34.60;;;;;;5068772;28;20044;-63
2021/03/31 10:57:22;;;;;;;5.45;2.10;;;22.10;34.70;;;;;;5073024;28;20032;-63
2021/03/31 10:59:47;;;;;;;5.65;2.00;;;22.20;34.70;;;;;;5074621;28;20028;-66
2021/03/31 11:02:13;;;;;;;5.05;2.03;;;22.20;34.60;;;;;;5069447;28;20024;-69
2021/03/31 11:04:39;;;;;;;7.03;2.00;;;22.40;34.50;;;;;;5058845;28;20036;-68
2021/03/31 11:07:05;;;;;;;6.80;2.28;;;22.40;34.40;;;;;;5054715;28;20546;-64
2021/03/31 11:09:30;;;;;;;5.95;2.15;;;22.40;34.50;;;;;;5054093;28;20108;-67
2021/03/31 11:11:57;;;;;;;7.70;2.30;;;22.50;34.60;;;;;;5068173;28;20473;-67
2021/03/31 11:14:23;;;;;;;6.28;2.58;;;22.50;34.60;;;;;;5054412;28;20083;-67
2021/03/31 11:17:04;;;;;;;4.80;1.70;;;22.50;34.50;;;;;;5067179;28;20029;-68
2021/03/31 11:19:51;;;;;;;5.32;1.75;;;22.60;34.50;;;;;;5068491;28;20031;-69
2021/03/31 11:27:45;;;;;;;7.20;1.83;;;22.70;34.50;;;;;;5074465;28;20491;-68
2021/03/31 11:30:13;;;;;;;4.47;1.90;;;22.80;34.50;;;;;;5069682;28;20056;-65
2021/03/31 11:32:39;;;;;;;6.72;1.80;;;22.80;34.50;;;;;;5055242;28;20056;-64
2021/03/31 11:35:06;;;;;;;6.05;1.90;;;22.90;34.50;;;;;;5067827;28;20098;-66
2021/03/31 11:37:31;;;;;;;4.63;1.77;;;22.90;34.60;;;;;;5062559;28;20036;-66
2021/03/31 11:39:57;;;;;;;5.72;2.90;;;22.90;34.60;;;;;;5058994;28;20098;-69
2021/03/31 11:42:23;;;;;;;6.85;2.20;;;23.00;34.60;;;;;;5088787;28;20566;-68
2021/03/31 11:44:48;;;;;;;6.85;2.00;;;23.00;34.50;;;;;;5069514;28;20035;-70
2021/03/31 11:47:14;;;;;;;4.55;2.00;;;23.10;34.50;;;;;;5067289;28;20389;-68
2021/03/31 11:49:40;;;;;;;8.90;2.35;;;23.20;34.40;;;;;;5068708;28;20434;-68
2021/03/31 11:52:06;;;;;;;7.78;2.30;;;23.20;34.40;;;;;;5068204;28;20081;-69
2021/03/31 11:54:31;;;;;;;4.40;1.98;;;23.30;34.40;;;;;;5071114;28;20767;-68
2021/03/31 11:56:57;;;;;;;5.75;2.50;;;23.30;34.30;;;;;;5060024;28;20032;-70
2021/03/31 11:59:23;;;;;;;6.40;2.55;;;23.30;34.30;;;;;;5055039;28;20039;-68
2021/03/31 12:01:48;;;;;;;5.75;2.60;;;23.40;34.20;;;;;;5067618;28;20048;-68
2021/03/31 12:04:15;;;;;;;5.40;2.55;;;23.40;34.10;;;;;;5067478;28;20495;-69
2021/03/31 12:06:42;;;;;;;5.30;2.40;;;23.50;34.00;;;;;;5062647;28;20040;-67
2021/03/31 12:09:08;;;;;;;7.05;2.75;;;23.50;33.90;;;;;;5065786;28;20043;-68
2021/03/31 12:11:39;;;;;;;5.43;2.42;;;23.60;33.70;;;;;;5067015;28;20024;-67
2021/03/31 12:14:04;;;;;;;5.07;2.35;;;23.70;33.60;;;;;;5055169;28;20025;-69
2021/03/31 12:16:30;;;;;;;5.88;2.20;;;23.70;33.50;;;;;;5065742;28;20039;-69
2021/03/31 12:18:56;;;;;;;7.03;2.50;;;23.80;33.40;;;;;;5073069;28;20021;-67
2021/03/31 12:21:22;;;;;;;6.40;2.17;;;23.80;33.30;;;;;;5066985;28;20522;-69
2021/03/31 12:23:47;;;;;;;5.70;2.70;;;23.90;33.20;;;;;;5063249;28;20110;-68
2021/03/31 12:26:14;;;;;;;6.50;2.72;;;23.90;33.20;;;;;;5071451;28;20044;-68
2021/03/31 12:28:40;;;;;;;5.25;2.17;;;24.00;33.10;;;;;;5078302;28;20074;-69
2021/03/31 12:31:08;;;;;;;5.28;2.20;;;24.00;32.90;;;;;;5067308;28;20040;-68
2021/03/31 12:33:34;;;;;;;5.80;2.50;;;24.10;32.80;;;;;;5070657;28;20492;-68
2021/03/31 12:36:00;;;;;;;6.82;3.20;;;24.10;32.70;;;;;;5068404;28;20013;-68
2021/03/31 12:38:26;;;;;;;5.80;2.65;;;24.20;32.60;;;;;;5051979;28;20483;-68
2021/03/31 12:40:51;;;;;;;6.80;3.22;;;24.20;32.60;;;;;;5063337;28;20028;-73
2021/03/31 12:43:19;;;;;;;9.60;4.00;;;24.20;32.40;;;;;;5065617;28;20064;-68
2021/03/31 12:45:44;;;;;;;8.07;3.53;;;24.20;32.20;;;;;;5069369;28;20063;-66
2021/03/31 12:48:10;;;;;;;9.77;3.58;;;24.20;32.40;;;;;;5070535;28;20040;-63
2021/03/31 12:50:37;;;;;;;6.35;2.50;;;24.30;32.20;;;;;;5070595;28;20031;-66
2021/03/31 12:55:39;;;;;;;6.65;3.10;;;24.40;32.30;;;;;;5061270;28;20032;-64
2021/03/31 12:58:11;;;;;;;7.55;3.45;;;24.30;32.40;;;;;;5071335;28;20029;-64
2021/03/31 13:00:37;;;;;;;9.02;3.33;;;24.20;32.40;;;;;;5071367;28;20021;-63
2021/03/31 13:03:03;;;;;;;8.65;3.13;;;24.20;32.30;;;;;;5071176;28;20024;-66
2021/03/31 13:05:29;;;;;;;8.10;2.95;;;24.10;32.70;;;;;;5070969;28;20480;-64
2021/03/31 13:07:54;;;;;;;9.32;3.28;;;24.00;31.00;;;;;;5071472;28;20021;-63
2021/03/31 13:10:20;;;;;;;7.13;3.10;;;24.00;32.10;;;;;;5071176;28;20028;-62